Time;durP1;ratioP1;P1;durP2;ratioP2;P2;SDS_P1;SDS_P2;PMS_P1;PMS_P2;Temp;Humidity;BMP_temperature;BMP_pressure;BME280_temperature;BME280_humidity;BME280_pressure;Samples;Min_cycle;Max_cycle;Signal;HPM_P1;HPM_P2
2024/01/04 00:00:54;;;;;;;1.67;0.83;;;;;;;7.82;100.00;96589.25;5113312;28;20596;-73
2024/01/04 00:03:22;;;;;;;0.83;0.53;;;;;;;7.79;100.00;96576.53;5113790;28;20203;-73
2024/01/04 00:05:48;;;;;;;1.63;0.47;;;;;;;7.74;100.00;96577.22;5113813;28;20196;-73
2024/01/04 00:08:15;;;;;;;2.00;0.83;;;;;;;7.70;100.00;96573.44;5113864;28;20209;-73
2024/01/04 00:10:41;;;;;;;3.80;1.03;;;;;;;7.64;100.00;96576.25;5113480;28;20244;-73
2024/01/04 00:13:08;;;;;;;2.93;0.50;;;;;;;7.62;100.00;96570.38;5113488;28;20207;-73
2024/01/04 00:15:34;;;;;;;1.50;0.50;;;;;;;7.63;100.00;96578.09;5113422;28;20219;-73
2024/01/04 00:18:03;;;;;;;2.20;0.60;;;;;;;7.64;100.00;96584.97;5116960;28;20203;-73
2024/01/04 00:20:30;;;;;;;1.70;0.50;;;;;;;7.56;100.00;96588.00;5117665;28;20231;-73
2024/01/04 00:22:56;;;;;;;2.70;0.60;;;;;;;7.57;100.00;96594.09;5117284;28;20212;-73
2024/01/04 00:25:23;;;;;;;1.47;0.60;;;;;;;7.54;100.00;96598.00;5117605;28;20211;-73
2024/01/04 00:27:49;;;;;;;1.50;0.60;;;;;;;7.42;100.00;96599.09;5117242;28;20207;-73
2024/01/04 00:30:15;;;;;;;4.50;0.90;;;;;;;7.38;100.00;96603.22;5117476;28;20305;-73
2024/01/04 00:32:43;;;;;;;3.30;0.93;;;;;;;7.40;100.00;96603.78;5117157;28;20570;-73
2024/01/04 00:35:09;;;;;;;3.37;0.73;;;;;;;7.32;100.00;96599.69;5116936;28;20697;-73
2024/01/04 00:37:36;;;;;;;2.73;0.70;;;;;;;7.38;100.00;96595.31;5117412;28;20199;-73
2024/01/04 00:40:02;;;;;;;3.80;1.17;;;;;;;7.38;100.00;96600.59;5117017;28;20223;-73
2024/01/04 00:42:28;;;;;;;2.40;0.67;;;;;;;7.31;100.00;96606.00;5117374;28;20656;-73
2024/01/04 00:44:55;;;;;;;4.13;0.93;;;;;;;7.35;100.00;96612.44;5116902;28;20681;-73
2024/01/04 00:47:21;;;;;;;2.23;0.60;;;;;;;7.37;100.00;96606.91;5116874;28;20214;-73
2024/01/04 00:49:50;;;;;;;1.70;0.67;;;;;;;7.39;100.00;96613.59;5117112;28;20223;-73
2024/01/04 00:52:18;;;;;;;2.20;0.73;;;;;;;7.44;100.00;96612.88;5117165;28;20207;-73
2024/01/04 00:54:46;;;;;;;1.70;0.77;;;;;;;7.42;100.00;96614.94;5117273;28;20628;-73
2024/01/04 00:57:13;;;;;;;1.67;0.70;;;;;;;7.40;100.00;96614.38;5116636;28;20573;-73
2024/01/04 00:59:40;;;;;;;1.83;0.73;;;;;;;7.33;100.00;96608.41;5117664;28;20233;-73
2024/01/04 01:02:06;;;;;;;2.30;0.60;;;;;;;7.32;100.00;96618.19;5116598;28;20203;-73
2024/01/04 01:04:37;;;;;;;2.07;0.60;;;;;;;7.30;100.00;96622.91;5116518;28;20203;-73
2024/01/04 01:07:05;;;;;;;3.33;0.70;;;;;;;7.21;100.00;96624.31;5116863;27;20229;-73
2024/01/04 01:09:32;;;;;;;1.83;0.50;;;;;;;7.19;100.00;96633.50;5116665;28;20230;-73
2024/01/04 01:12:00;;;;;;;3.93;0.83;;;;;;;7.20;100.00;96624.53;5116399;28;20290;-73
2024/01/04 01:14:29;;;;;;;2.87;0.60;;;;;;;7.19;100.00;96641.44;5116227;28;20713;-73
2024/01/04 01:16:56;;;;;;;2.23;0.70;;;;;;;7.17;100.00;96643.47;5116251;28;20199;-73
2024/01/04 01:19:24;;;;;;;2.33;0.70;;;;;;;7.08;100.00;96643.03;5116657;28;20310;-73
2024/01/04 01:21:51;;;;;;;3.17;0.90;;;;;;;7.02;100.00;96653.72;5116057;28;20211;-73
2024/01/04 01:24:18;;;;;;;2.30;0.60;;;;;;;7.00;100.00;96639.91;5116526;28;20229;-73
2024/01/04 01:26:46;;;;;;;2.07;0.50;;;;;;;6.97;100.00;96645.69;5116469;28;20570;-73
2024/01/04 01:29:13;;;;;;;3.20;0.70;;;;;;;7.00;100.00;96632.00;5115277;28;20236;-73
2024/01/04 01:31:43;;;;;;;1.93;0.77;;;;;;;7.01;100.00;96639.69;5116364;28;20203;-73
2024/01/04 01:34:10;;;;;;;3.27;0.73;;;;;;;6.98;100.00;96636.72;5116463;28;20213;-73
2024/01/04 01:36:42;;;;;;;3.60;0.87;;;;;;;7.04;100.00;96638.44;5115964;28;20688;-73
2024/01/04 01:39:10;;;;;;;3.30;0.70;;;;;;;6.92;100.00;96627.88;5115807;28;20258;-73
2024/01/04 01:41:37;;;;;;;4.53;0.80;;;;;;;6.91;100.00;96638.66;5115817;28;20211;-73
2024/01/04 01:44:04;;;;;;;2.47;0.60;;;;;;;6.88;100.00;96639.94;5116083;28;20253;-73
2024/01/04 01:46:31;;;;;;;3.17;0.73;;;;;;;6.86;100.00;96651.75;5116078;28;20226;-73
2024/01/04 01:48:58;;;;;;;1.73;0.60;;;;;;;6.92;100.00;96650.84;5115961;28;20210;-73
2024/01/04 01:51:26;;;;;;;1.67;0.70;;;;;;;6.92;100.00;96658.78;5115571;28;20213;-73
2024/01/04 01:53:54;;;;;;;2.37;0.50;;;;;;;6.89;100.00;96675.09;5115464;27;20207;-73
2024/01/04 01:56:22;;;;;;;2.67;0.60;;;;;;;6.93;100.00;96689.44;5115548;28;20694;-73
2024/01/04 01:58:50;;;;;;;2.13;0.50;;;;;;;7.05;100.00;96691.06;5115408;28;20290;-73
2024/01/04 02:01:19;;;;;;;1.57;0.50;;;;;;;7.03;100.00;96695.78;5115456;28;20240;-72
2024/01/04 02:03:48;;;;;;;2.00;0.40;;;;;;;6.90;100.00;96682.78;5117315;28;20206;-72
2024/01/04 02:06:16;;;;;;;0.40;0.30;;;;;;;6.80;100.00;96672.00;5116186;28;20207;-72
2024/01/04 02:08:49;;;;;;;0.30;0.30;;;;;;;6.70;100.00;96666.44;5115271;28;20207;-72
2024/01/04 02:11:16;;;;;;;1.90;0.53;;;;;;;6.75;100.00;96663.91;5115257;28;20219;-72
2024/01/04 02:13:43;;;;;;;0.63;0.30;;;;;;;6.67;100.00;96666.09;5115528;28;20206;-72
2024/01/04 02:16:10;;;;;;;0.73;0.30;;;;;;;6.69;100.00;96670.13;5115386;28;20347;-72
2024/01/04 02:18:36;;;;;;;0.30;0.30;;;;;;;6.83;100.00;96679.44;5115129;28;20205;-72
2024/01/04 02:21:03;;;;;;;1.73;0.30;;;;;;;6.87;100.00;96683.22;5115070;28;20636;-72
2024/01/04 02:23:29;;;;;;;0.47;0.30;;;;;;;6.90;100.00;96693.34;5115887;28;20191;-72
2024/01/04 02:25:56;;;;;;;0.40;0.20;;;;;;;6.98;100.00;96695.66;5114865;28;20203;-72
2024/01/04 02:28:22;;;;;;;0.47;0.20;;;;;;;6.94;100.00;96718.28;5114867;28;20566;-72
2024/01/04 02:30:49;;;;;;;0.70;0.33;;;;;;;7.01;100.00;96740.09;5115094;28;20219;-72
2024/01/04 02:33:15;;;;;;;1.43;0.40;;;;;;;7.00;100.00;96742.97;5115134;28;20209;-72
2024/01/04 02:35:41;;;;;;;0.30;0.30;;;;;;;6.92;100.00;96728.25;5114973;28;20227;-72
2024/01/04 02:38:08;;;;;;;0.50;0.30;;;;;;;6.91;100.00;96736.41;5115019;28;20202;-72
2024/01/04 02:40:36;;;;;;;0.53;0.30;;;;;;;6.92;100.00;96738.03;5113938;28;20229;-72
2024/01/04 02:43:08;;;;;;;0.30;0.30;;;;;;;6.88;100.00;96739.53;5115548;28;20214;-72
2024/01/04 02:45:35;;;;;;;0.17;0.17;;;;;;;6.84;100.00;96746.28;5114984;28;20188;-72
2024/01/04 02:48:01;;;;;;;0.20;0.20;;;;;;;6.85;100.00;96742.59;5114750;28;20203;-72
2024/01/04 02:50:28;;;;;;;0.20;0.20;;;;;;;6.76;100.00;96743.97;5114725;28;20223;-72
2024/01/04 02:52:54;;;;;;;0.30;0.20;;;;;;;6.73;100.00;96736.47;5114700;28;20213;-72
2024/01/04 02:55:20;;;;;;;0.27;0.20;;;;;;;6.75;100.00;96737.09;5115228;28;20225;-72
2024/01/04 02:57:47;;;;;;;0.30;0.30;;;;;;;6.69;100.00;96727.44;5114657;28;20205;-72
2024/01/04 03:00:17;;;;;;;1.23;0.20;;;;;;;6.73;100.00;96729.38;5114194;28;20786;-72
2024/01/04 03:02:43;;;;;;;0.63;0.20;;;;;;;6.64;100.00;96730.72;5114235;28;20662;-72
2024/01/04 03:05:10;;;;;;;0.20;0.20;;;;;;;6.66;100.00;96730.50;5114590;28;20383;-73
2024/01/04 03:07:36;;;;;;;1.67;0.30;;;;;;;6.64;100.00;96728.09;5114472;28;20199;-73
2024/01/04 03:10:02;;;;;;;0.20;0.20;;;;;;;6.61;100.00;96733.81;5114475;28;20233;-73
2024/01/04 03:12:29;;;;;;;0.30;0.17;;;;;;;6.71;100.00;96743.84;5114532;28;20207;-73
2024/01/04 03:14:55;;;;;;;0.63;0.30;;;;;;;6.68;100.00;96725.78;5114751;28;20219;-73
2024/01/04 03:17:22;;;;;;;0.47;0.30;;;;;;;6.69;100.00;96743.28;5114437;28;20207;-73
2024/01/04 03:19:48;;;;;;;0.20;0.20;;;;;;;6.67;100.00;96737.41;5114273;28;20226;-73
2024/01/04 03:22:15;;;;;;;0.63;0.30;;;;;;;6.70;100.00;96742.25;5113930;28;20219;-73
2024/01/04 03:24:41;;;;;;;0.33;0.30;;;;;;;6.70;100.00;96743.03;5113709;28;20685;-73
2024/01/04 03:27:08;;;;;;;0.87;0.30;;;;;;;6.77;100.00;96756.13;5114156;28;20203;-73
2024/01/04 03:29:35;;;;;;;0.40;0.20;;;;;;;6.80;100.00;96747.75;5114026;28;20227;-73
2024/01/04 03:32:02;;;;;;;1.37;0.37;;;;;;;6.78;100.00;96742.69;5113877;28;20670;-73
2024/01/04 03:34:29;;;;;;;1.13;0.40;;;;;;;6.79;100.00;96743.53;5114065;28;20206;-73
2024/01/04 03:36:56;;;;;;;0.73;0.30;;;;;;;6.71;100.00;96742.00;5113707;28;20693;-73
2024/01/04 03:39:22;;;;;;;0.93;0.60;;;;;;;6.76;100.00;96736.84;5113640;28;20226;-73
2024/01/04 03:41:48;;;;;;;1.07;0.33;;;;;;;6.80;100.00;96734.56;5113670;28;20666;-73
2024/01/04 03:44:15;;;;;;;0.83;0.30;;;;;;;6.84;100.00;96739.16;5113642;28;20583;-73
2024/01/04 03:46:41;;;;;;;0.80;0.30;;;;;;;6.92;100.00;96745.97;5113976;28;20234;-73
2024/01/04 03:49:08;;;;;;;0.67;0.30;;;;;;;6.88;100.00;96747.44;5113439;28;20223;-73
2024/01/04 03:51:34;;;;;;;0.87;0.40;;;;;;;6.87;100.00;96740.56;5115116;28;20206;-73
2024/01/04 03:54:00;;;;;;;0.70;0.40;;;;;;;6.91;100.00;96746.97;5118171;28;20199;-73
2024/01/04 03:56:27;;;;;;;0.97;0.30;;;;;;;6.93;100.00;96747.56;5118041;28;20223;-73
2024/01/04 03:58:53;;;;;;;0.50;0.30;;;;;;;7.03;100.00;96751.25;5118038;28;20226;-73
2024/01/04 04:01:19;;;;;;;1.13;0.40;;;;;;;6.98;100.00;96760.88;5118081;28;20203;-73
2024/01/04 04:03:46;;;;;;;2.53;0.40;;;;;;;7.10;100.00;96772.28;5117907;28;20205;-73
2024/01/04 04:06:12;;;;;;;3.33;0.60;;;;;;;7.13;100.00;96761.25;5117768;28;20290;-73
2024/01/04 04:08:39;;;;;;;0.40;0.40;;;;;;;7.18;100.00;96772.75;5117456;28;20207;-73
2024/01/04 04:11:16;;;;;;;1.23;0.40;;;;;;;7.34;100.00;96771.28;5117238;28;20318;-73
2024/01/04 04:13:42;;;;;;;1.43;0.70;;;;;;;7.40;100.00;96778.28;5117539;28;20638;-73
2024/01/04 04:16:08;;;;;;;1.60;0.63;;;;;;;7.43;100.00;96780.47;5117310;28;20717;-73
2024/01/04 04:18:35;;;;;;;2.93;0.77;;;;;;;7.53;100.00;96783.34;5117616;28;20205;-73
2024/01/04 04:21:01;;;;;;;2.40;0.70;;;;;;;7.59;100.00;96793.81;5117448;28;20229;-73
2024/01/04 04:23:28;;;;;;;1.50;0.57;;;;;;;7.60;100.00;96798.03;5117918;28;20202;-73
2024/01/04 04:25:55;;;;;;;0.77;0.63;;;;;;;7.70;100.00;96787.69;5117940;28;20202;-73
2024/01/04 04:28:22;;;;;;;2.73;1.00;;;;;;;7.73;100.00;96795.16;5117507;28;20574;-73
2024/01/04 04:30:48;;;;;;;3.70;0.97;;;;;;;7.87;100.00;96798.41;5117281;28;20231;-73
2024/01/04 04:33:14;;;;;;;3.67;0.97;;;;;;;7.94;100.00;96797.22;5117257;28;20230;-73
2024/01/04 04:35:41;;;;;;;2.40;0.90;;;;;;;7.94;100.00;96788.47;5116689;28;20611;-73
2024/01/04 04:38:07;;;;;;;2.13;0.77;;;;;;;8.05;100.00;96792.97;5116638;28;20203;-73
2024/01/04 04:40:33;;;;;;;3.13;0.83;;;;;;;8.00;100.00;96792.81;5117144;28;20223;-73
2024/01/04 04:43:00;;;;;;;2.23;0.90;;;;;;;7.96;100.00;96779.25;5116943;28;20210;-73
2024/01/04 04:45:26;;;;;;;2.47;0.80;;;;;;;8.09;100.00;96800.19;5117084;28;20199;-73
2024/01/04 04:47:52;;;;;;;3.00;0.77;;;;;;;8.01;100.00;96797.88;5116960;28;20203;-73
2024/01/04 04:50:19;;;;;;;1.97;0.77;;;;;;;7.91;100.00;96815.38;5116871;28;20221;-73
2024/01/04 04:52:45;;;;;;;2.53;0.90;;;;;;;7.84;100.00;96797.03;5116569;28;20576;-73
2024/01/04 04:55:12;;;;;;;2.33;0.67;;;;;;;7.79;100.00;96810.09;5116947;28;20256;-73
2024/01/04 04:57:41;;;;;;;6.40;0.80;;;;;;;7.69;100.00;96803.81;5116978;28;20235;-73
2024/01/04 05:00:08;;;;;;;1.07;0.67;;;;;;;7.79;100.00;96819.91;5117318;28;20233;-73
2024/01/04 05:02:34;;;;;;;2.03;0.70;;;;;;;7.67;100.00;96816.44;5115817;28;20209;-73
2024/01/04 05:05:00;;;;;;;3.50;0.90;;;;;;;7.72;100.00;96827.94;5116063;28;20212;-73
2024/01/04 05:07:27;;;;;;;0.93;0.57;;;;;;;7.63;100.00;96820.59;5116512;28;20209;-73
2024/01/04 05:09:53;;;;;;;3.93;0.77;;;;;;;7.64;100.00;96819.56;5116463;28;20223;-73
2024/01/04 05:12:19;;;;;;;2.27;0.80;;;;;;;7.65;100.00;96829.91;5116136;27;20209;-73
2024/01/04 05:14:46;;;;;;;2.00;0.47;;;;;;;7.62;100.00;96842.78;5116476;28;20203;-73
2024/01/04 05:17:11;;;;;;;2.80;0.70;;;;;;;7.56;100.00;96847.13;5115917;28;20600;-73
2024/01/04 05:19:37;;;;;;;3.07;0.80;;;;;;;7.49;100.00;96848.28;5115996;28;20234;-73
2024/01/04 05:22:04;;;;;;;1.77;0.67;;;;;;;7.55;100.00;96845.53;5115789;28;20211;-73
2024/01/04 05:24:30;;;;;;;1.60;0.70;;;;;;;7.63;100.00;96862.91;5115617;28;20205;-73
2024/01/04 05:26:57;;;;;;;4.23;0.93;;;;;;;7.59;100.00;96864.38;5115863;28;20203;-73
2024/01/04 05:29:24;;;;;;;1.10;0.50;;;;;;;7.49;100.00;96859.69;5115805;28;20249;-73
2024/01/04 05:31:50;;;;;;;2.30;0.50;;;;;;;7.44;100.00;96867.50;5115412;28;20566;-73
2024/01/04 05:34:17;;;;;;;2.33;0.53;;;;;;;7.45;100.00;96863.00;5116491;28;20681;-73
2024/01/04 05:36:43;;;;;;;2.37;0.77;;;;;;;7.45;100.00;96873.56;5115917;28;20223;-73
2024/01/04 05:39:10;;;;;;;2.10;0.80;;;;;;;7.67;100.00;96875.44;5115339;28;20593;-73
2024/01/04 05:41:37;;;;;;;3.80;0.80;;;;;;;7.53;100.00;96881.19;5115193;28;20760;-73
2024/01/04 05:44:03;;;;;;;3.27;0.90;;;;;;;7.52;100.00;96885.66;5115773;28;20200;-73
2024/01/04 05:46:31;;;;;;;1.77;0.60;;;;;;;7.62;100.00;96885.09;5115415;28;20674;-73
2024/01/04 05:48:57;;;;;;;2.90;0.70;;;;;;;7.50;100.00;96886.91;5115567;27;20217;-73
2024/01/04 05:51:24;;;;;;;2.17;0.70;;;;;;;7.53;100.00;96894.41;5115807;28;20203;-73
2024/01/04 05:53:50;;;;;;;2.57;0.63;;;;;;;7.53;100.00;96889.09;5115452;28;20203;-73
2024/01/04 05:56:16;;;;;;;4.47;0.60;;;;;;;7.53;100.00;96899.69;5115138;28;20219;-73
2024/01/04 05:58:43;;;;;;;1.50;0.83;;;;;;;7.50;100.00;96908.06;5115522;28;20199;-73
2024/01/04 06:01:09;;;;;;;3.43;0.80;;;;;;;7.48;100.00;96916.25;5115482;28;20582;-73
2024/01/04 06:03:35;;;;;;;2.87;0.70;;;;;;;7.58;100.00;96924.44;5115312;28;20211;-73
2024/01/04 06:06:02;;;;;;;2.20;0.50;;;;;;;7.60;100.00;96919.69;5115102;28;20225;-73
2024/01/04 06:08:28;;;;;;;2.43;0.60;;;;;;;7.51;100.00;96925.56;5115129;28;20207;-73
2024/01/04 06:10:54;;;;;;;2.83;0.70;;;;;;;7.75;100.00;96925.38;5115106;28;20219;-73
2024/01/04 06:13:26;;;;;;;2.20;0.50;;;;;;;7.65;100.00;96927.75;5115253;28;20203;-73
2024/01/04 06:15:53;;;;;;;2.77;0.77;;;;;;;7.60;100.00;96932.94;5114838;28;20233;-73
2024/01/04 06:18:19;;;;;;;2.67;0.70;;;;;;;7.58;100.00;96931.53;5115078;28;20235;-73
2024/01/04 06:20:45;;;;;;;3.97;0.80;;;;;;;7.56;100.00;96938.91;5115045;28;20323;-73
2024/01/04 06:23:12;;;;;;;3.13;0.60;;;;;;;7.61;100.00;96942.47;5114678;28;20214;-73
2024/01/04 06:25:38;;;;;;;3.83;0.60;;;;;;;7.75;100.00;96941.25;5114790;28;20205;-73
2024/01/04 06:28:05;;;;;;;2.07;0.60;;;;;;;7.80;100.00;96959.06;5114642;28;20203;-73
2024/01/04 06:30:34;;;;;;;3.13;0.60;;;;;;;7.81;100.00;96950.91;5114676;28;20712;-73
2024/01/04 06:33:00;;;;;;;4.93;0.90;;;;;;;7.93;100.00;96958.88;5115005;28;20199;-73
2024/01/04 06:35:26;;;;;;;3.63;0.70;;;;;;;7.86;100.00;96955.50;5114313;28;20213;-73
2024/01/04 06:37:53;;;;;;;2.37;0.90;;;;;;;7.77;100.00;96967.44;5114262;28;20207;-73
2024/01/04 06:40:19;;;;;;;2.60;1.10;;;;;;;7.63;100.00;96977.44;5114670;28;20220;-73
2024/01/04 06:42:53;;;;;;;2.67;0.70;;;;;;;7.59;100.00;96971.00;5114801;28;20199;-73
2024/01/04 06:45:19;;;;;;;2.53;0.70;;;;;;;7.61;100.00;96968.91;5115430;28;20199;-73
2024/01/04 06:47:45;;;;;;;6.73;0.93;;;;;;;7.56;100.00;96973.28;5114424;28;20199;-73
2024/01/04 06:50:12;;;;;;;1.20;0.60;;;;;;;7.61;100.00;96973.41;5114342;28;20225;-73
2024/01/04 06:52:38;;;;;;;2.83;0.60;;;;;;;7.78;100.00;96980.47;5114500;28;20210;-73
2024/01/04 06:55:05;;;;;;;1.70;0.50;;;;;;;7.90;100.00;96989.22;5114442;28;20203;-73
2024/01/04 06:57:31;;;;;;;2.80;0.70;;;;;;;7.87;100.00;96996.84;5114158;28;20227;-73
2024/01/04 06:59:58;;;;;;;2.70;0.77;;;;;;;7.81;100.00;97008.31;5114192;28;20236;-73
2024/01/04 07:02:24;;;;;;;2.53;0.73;;;;;;;7.72;100.00;97007.81;5114183;28;20199;-73
2024/01/04 07:04:50;;;;;;;1.83;0.90;;;;;;;7.77;100.00;97007.13;5114190;28;20203;-73
2024/01/04 07:07:17;;;;;;;3.00;1.03;;;;;;;7.71;100.00;97006.22;5113581;28;20199;-73
2024/01/04 07:09:43;;;;;;;2.77;0.77;;;;;;;7.83;100.00;97019.47;5113888;28;20219;-73
2024/01/04 07:12:11;;;;;;;2.33;0.87;;;;;;;7.79;100.00;97032.34;5113757;28;20200;-74
2024/01/04 07:14:41;;;;;;;2.93;0.77;;;;;;;7.75;100.00;97020.63;5113543;28;20207;-73
2024/01/04 07:17:09;;;;;;;1.93;0.60;;;;;;;7.89;100.00;97039.72;5113374;28;20219;-73
2024/01/04 07:19:35;;;;;;;3.50;0.70;;;;;;;7.89;100.00;97037.09;5113436;28;20594;-73
2024/01/04 07:22:02;;;;;;;4.63;0.70;;;;;;;7.85;100.00;97044.69;5113314;28;20300;-73
2024/01/04 07:24:30;;;;;;;3.40;0.77;;;;;;;7.84;100.00;97043.06;5113673;28;20201;-73
2024/01/04 07:26:57;;;;;;;2.20;0.50;;;;;;;7.82;100.00;97053.06;5112679;28;20199;-73
2024/01/04 07:29:24;;;;;;;2.43;0.77;;;;;;;7.81;100.00;97048.00;5113462;28;20592;-73
2024/01/04 07:31:52;;;;;;;1.70;0.67;;;;;;;7.71;100.00;97050.38;5113615;28;20670;-73
2024/01/04 07:34:19;;;;;;;3.97;0.70;;;;;;;7.65;100.00;97060.00;5113394;28;20199;-73
2024/01/04 07:36:45;;;;;;;0.80;0.50;;;;;;;7.62;100.00;97059.66;5113578;27;20229;-73
2024/01/04 07:39:12;;;;;;;1.70;0.50;;;;;;;7.56;100.00;97063.22;5113154;28;20227;-73
2024/01/04 07:41:38;;;;;;;1.60;0.50;;;;;;;7.47;100.00;97067.97;5113269;28;20665;-73
2024/01/04 07:44:05;;;;;;;1.47;0.43;;;;;;;7.38;100.00;97076.47;5113474;28;20201;-73
2024/01/04 07:46:33;;;;;;;1.20;0.53;;;;;;;7.35;100.00;97082.19;5113367;28;20689;-73
2024/01/04 07:49:00;;;;;;;0.43;0.43;;;;;;;7.29;100.00;97081.22;5113143;28;20200;-73
2024/01/04 07:51:27;;;;;;;0.80;0.50;;;;;;;7.28;100.00;97082.25;5113278;28;20666;-73
2024/01/04 07:53:53;;;;;;;1.40;0.60;;;;;;;7.29;100.00;97080.44;5115291;28;20214;-73
2024/01/04 07:56:20;;;;;;;1.40;0.60;;;;;;;7.29;100.00;97083.88;5113598;28;20229;-74
2024/01/04 07:58:46;;;;;;;0.70;0.40;;;;;;;7.28;100.00;97086.75;5113309;28;20199;-73
2024/01/04 08:01:16;;;;;;;1.57;0.53;;;;;;;7.25;100.00;97084.53;5113103;28;20207;-73
2024/01/04 08:03:46;;;;;;;1.67;0.60;;;;;;;7.28;100.00;97089.41;5113346;28;20203;-73
2024/01/04 08:06:12;;;;;;;2.07;0.50;;;;;;;7.30;100.00;97090.78;5113181;28;20231;-73
2024/01/04 08:08:39;;;;;;;2.67;0.60;;;;;;;7.34;100.00;97085.84;5113741;28;20207;-73
2024/01/04 08:11:10;;;;;;;5.20;0.83;;;;;;;7.33;100.00;97094.81;5113165;28;20227;-73
2024/01/04 08:13:38;;;;;;;4.07;0.90;;;;;;;7.38;100.00;97087.81;5113558;28;20214;-73
2024/01/04 08:16:04;;;;;;;3.73;0.87;;;;;;;7.37;100.00;97090.72;5113294;28;20203;-73
2024/01/04 08:18:32;;;;;;;3.10;0.80;;;;;;;7.43;100.00;97095.91;5113064;28;20199;-74
2024/01/04 08:20:58;;;;;;;2.03;0.63;;;;;;;7.51;100.00;97097.44;5112916;28;20223;-73
2024/01/04 08:23:24;;;;;;;3.17;1.00;;;;;;;7.57;100.00;97099.19;5113200;28;20211;-74
2024/01/04 08:25:51;;;;;;;3.10;0.67;;;;;;;7.63;100.00;97100.94;5113217;28;20563;-73
2024/01/04 08:28:17;;;;;;;2.57;1.10;;;;;;;7.58;100.00;97106.91;5112892;28;20572;-73
2024/01/04 08:30:44;;;;;;;3.00;0.80;;;;;;;7.64;100.00;97102.56;5112775;28;20611;-73
2024/01/04 08:33:11;;;;;;;3.47;1.23;;;;;;;7.70;100.00;97106.97;5112901;28;20218;-73
2024/01/04 08:35:37;;;;;;;2.63;1.10;;;;;;;7.68;100.00;97101.06;5113251;28;20203;-73
2024/01/04 08:38:03;;;;;;;5.17;1.50;;;;;;;7.69;100.00;97105.34;5114741;28;20698;-73
2024/01/04 08:40:30;;;;;;;1.90;0.70;;;;;;;7.70;100.00;97113.03;5116995;28;20223;-73
2024/01/04 08:42:57;;;;;;;4.03;0.90;;;;;;;7.77;100.00;97118.25;5117147;28;20305;-73
2024/01/04 08:45:25;;;;;;;4.17;1.13;;;;;;;7.77;100.00;97119.06;5117018;28;20207;-73
2024/01/04 08:47:51;;;;;;;3.57;1.13;;;;;;;7.84;100.00;97134.84;5116924;28;20221;-73
2024/01/04 08:50:17;;;;;;;3.43;1.03;;;;;;;7.91;100.00;97132.91;5116582;28;20326;-73
2024/01/04 08:52:44;;;;;;;4.07;1.23;;;;;;;7.99;100.00;97140.53;5116846;28;20203;-73
2024/01/04 08:55:10;;;;;;;4.30;1.00;;;;;;;8.13;100.00;97141.97;5116798;28;20213;-73
2024/01/04 08:57:36;;;;;;;2.27;0.90;;;;;;;8.23;100.00;97142.28;5116421;28;20223;-73
2024/01/04 09:00:04;;;;;;;5.00;1.07;;;;;;;8.28;100.00;97153.78;5116595;28;20224;-73
2024/01/04 09:02:31;;;;;;;2.83;0.90;;;;;;;8.36;100.00;97169.38;5117078;28;20199;-73
2024/01/04 09:04:57;;;;;;;2.80;1.03;;;;;;;8.37;100.00;97163.03;5118421;28;20199;-73
2024/01/04 09:07:23;;;;;;;5.67;1.03;;;;;;;8.37;100.00;97162.25;5116490;28;20225;-73
2024/01/04 09:09:50;;;;;;;4.10;0.93;;;;;;;8.35;100.00;97165.13;5115790;28;20590;-73
2024/01/04 09:12:16;;;;;;;2.40;0.80;;;;;;;8.30;100.00;97178.22;5115822;28;20670;-73
2024/01/04 09:14:42;;;;;;;5.27;1.13;;;;;;;8.24;100.00;97178.31;5116266;28;20214;-73
2024/01/04 09:17:09;;;;;;;2.23;0.93;;;;;;;8.19;100.00;97180.81;5116107;28;20227;-73
2024/01/04 09:19:35;;;;;;;3.47;1.10;;;;;;;8.20;100.00;97177.94;5116051;28;20219;-73
2024/01/04 09:22:02;;;;;;;2.43;0.90;;;;;;;8.27;100.00;97177.84;5115880;28;20222;-74
2024/01/04 09:24:28;;;;;;;4.00;1.10;;;;;;;8.24;100.00;97179.09;5116147;28;20238;-74
2024/01/04 09:26:55;;;;;;;2.43;1.10;;;;;;;8.34;100.00;97174.09;5115838;28;20199;-74
2024/01/04 09:29:21;;;;;;;3.13;1.50;;;;;;;8.41;100.00;97174.78;5115688;28;20241;-74
2024/01/04 09:31:47;;;;;;;5.97;1.10;;;;;;;8.48;100.00;97180.81;5115651;28;20564;-74
2024/01/04 09:34:15;;;;;;;3.07;0.97;;;;;;;8.58;100.00;97174.94;5115708;28;20222;-74
2024/01/04 09:36:41;;;;;;;2.57;1.00;;;;;;;8.56;100.00;97180.47;5115700;28;20230;-74
2024/01/04 09:39:08;;;;;;;4.93;1.33;;;;;;;8.72;100.00;97182.47;5115825;28;20233;-74
2024/01/04 09:41:44;;;;;;;2.63;0.93;;;;;;;8.79;100.00;97187.66;5115999;28;20225;-74
2024/01/04 09:44:11;;;;;;;4.20;0.90;;;;;;;8.84;100.00;97196.56;5115757;28;20187;-74
2024/01/04 09:46:40;;;;;;;5.60;1.00;;;;;;;8.81;100.00;97196.19;5115320;28;20708;-74
2024/01/04 09:49:08;;;;;;;2.77;0.90;;;;;;;8.80;100.00;97202.53;5114792;28;20876;-74
2024/01/04 09:51:39;;;;;;;6.03;1.00;;;;;;;8.85;100.00;97215.88;5115523;28;20658;-74
2024/01/04 09:54:08;;;;;;;4.50;1.37;;;;;;;8.88;100.00;97215.44;5115712;28;20549;-74
2024/01/04 09:56:39;;;;;;;4.30;1.17;;;;;;;8.94;100.00;97218.00;5115149;28;20666;-74
2024/01/04 09:59:07;;;;;;;3.23;0.93;;;;;;;8.84;100.00;97227.53;5115394;28;20242;-74
2024/01/04 10:01:35;;;;;;;2.40;0.80;;;;;;;8.79;100.00;97230.84;5115431;28;20203;-74
2024/01/04 10:04:06;;;;;;;3.60;0.73;;;;;;;8.80;100.00;97234.31;5114977;28;20210;-72
2024/01/04 10:06:33;;;;;;;3.80;1.10;;;;;;;8.78;100.00;97242.50;5115000;28;20627;-72
2024/01/04 10:09:15;;;;;;;4.00;1.13;;;;;;;8.72;100.00;97242.59;5115424;28;20207;-72
2024/01/04 10:11:56;;;;;;;4.77;1.13;;;;;;;8.68;100.00;97249.38;5115507;28;20206;-72
2024/01/04 10:14:27;;;;;;;4.20;0.80;;;;;;;8.68;100.00;97257.31;5115242;28;20248;-72
2024/01/04 10:16:56;;;;;;;3.10;0.93;;;;;;;8.63;100.00;97259.84;5115139;28;20236;-72
2024/01/04 10:19:23;;;;;;;3.50;1.00;;;;;;;8.52;100.00;97248.19;5114952;28;20227;-72
2024/01/04 10:21:49;;;;;;;2.23;0.87;;;;;;;8.38;100.00;97256.53;5115033;28;20229;-72
2024/01/04 10:24:22;;;;;;;2.03;0.97;;;;;;;8.29;100.00;97257.88;5115086;28;20203;-72
2024/01/04 10:26:58;;;;;;;2.73;0.90;;;;;;;8.24;100.00;97260.41;5114860;28;20215;-74
2024/01/04 10:29:26;;;;;;;4.13;1.27;;;;;;;8.14;100.00;97268.81;5114872;28;20585;-74
2024/01/04 10:32:11;;;;;;;4.77;1.00;;;;;;;8.04;100.00;97278.31;5114874;28;20203;-74
2024/01/04 10:34:38;;;;;;;3.17;0.97;;;;;;;8.00;100.00;97287.72;5115010;28;20222;-74
2024/01/04 10:37:09;;;;;;;2.77;1.10;;;;;;;7.98;100.00;97285.31;5114625;28;20229;-74
2024/01/04 10:39:38;;;;;;;6.70;1.43;;;;;;;8.00;100.00;97285.91;5114369;28;20223;-74
2024/01/04 10:42:07;;;;;;;3.03;1.20;;;;;;;7.94;100.00;97299.19;5114644;28;20217;-74
2024/01/04 10:44:33;;;;;;;1.63;0.80;;;;;;;7.75;100.00;97289.63;5114599;28;20203;-74
2024/01/04 10:47:02;;;;;;;3.70;0.90;;;;;;;7.74;100.00;97291.47;5114521;28;20209;-74
2024/01/04 10:49:29;;;;;;;4.87;1.10;;;;;;;7.64;100.00;97280.59;5114191;28;20231;-74
2024/01/04 10:51:57;;;;;;;2.17;0.80;;;;;;;7.62;100.00;97295.06;5114261;28;20571;-74
2024/01/04 10:54:34;;;;;;;4.37;1.17;;;;;;;7.72;100.00;97279.50;5114124;28;20670;-73
2024/01/04 10:57:02;;;;;;;2.03;0.70;;;;;;;7.76;100.00;97283.31;5114398;28;20225;-74
2024/01/04 10:59:30;;;;;;;4.80;1.00;;;;;;;7.93;100.00;97287.00;5114051;28;20262;-74
2024/01/04 11:02:00;;;;;;;3.50;0.90;;;;;;;8.03;100.00;97288.09;5113435;28;20203;-74
2024/01/04 11:04:27;;;;;;;2.87;0.70;;;;;;;8.17;100.00;97284.28;5114035;28;20208;-74
2024/01/04 11:06:54;;;;;;;2.83;0.73;;;;;;;8.33;100.00;97293.47;5114000;28;20614;-74
2024/01/04 11:09:21;;;;;;;2.03;0.67;;;;;;;8.42;100.00;97295.59;5113635;28;20718;-74
2024/01/04 11:11:51;;;;;;;0.93;0.60;;;;;;;8.60;100.00;97281.50;5113891;28;20669;-72
2024/01/04 11:14:19;;;;;;;0.80;0.60;;;;;;;8.47;100.00;97281.69;5114165;28;20242;-72
2024/01/04 11:16:45;;;;;;;1.73;0.43;;;;;;;8.43;100.00;97283.16;5114065;28;20208;-73
2024/01/04 11:19:40;;;;;;;1.63;0.57;;;;;;;8.54;100.00;97285.03;5113988;28;20249;-74
2024/01/04 11:22:34;;;;;;;1.03;0.50;;;;;;;8.50;100.00;97286.50;5113716;28;20207;-74
2024/01/04 11:25:27;;;;;;;1.87;0.60;;;;;;;8.52;100.00;97289.75;5113820;28;20195;-74
2024/01/04 11:27:54;;;;;;;1.70;0.60;;;;;;;8.58;100.00;97284.38;5084873;28;20564;-74
2024/01/04 11:30:21;;;;;;;1.77;0.70;;;;;;;8.30;100.00;97291.25;5112245;28;20765;-74
2024/01/04 11:32:48;;;;;;;1.00;0.67;;;;;;;8.31;100.00;97291.06;5113720;28;20209;-74
2024/01/04 11:35:15;;;;;;;2.07;0.80;;;;;;;8.27;100.00;97287.22;5113583;28;20252;-74